sensor_id;sensor_type;location;lat;lon;timestamp;temperature;humidity
2112;DHT22;1062;52.538;13.400;2024-03-02T00:00:09;8.70;99.90
2112;DHT22;1062;52.538;13.400;2024-03-02T00:02:43;8.70;99.90
2112;DHT22;1062;52.538;13.400;2024-03-02T00:05:21;8.70;99.90
2112;DHT22;1062;52.538;13.400;2024-03-02T00:07:57;8.70;99.90
2112;DHT22;1062;52.538;13.400;2024-03-02T00:10:26;8.80;99.90
2112;DHT22;1062;52.538;13.400;2024-03-02T00:12:55;8.80;99.90
2112;DHT22;1062;52.538;13.400;2024-03-02T00:15:42;8.80;99.90
2112;DHT22;1062;52.538;13.400;2024-03-02T00:18:12;8.80;99.90
2112;DHT22;1062;52.538;13.400;2024-03-02T00:20:39;8.80;99.90
2112;DHT22;1062;52.538;13.400;2024-03-02T00:23:07;8.80;99.90
2112;DHT22;1062;52.538;13.400;2024-03-02T00:25:40;8.80;99.90
2112;DHT22;1062;52.538;13.400;2024-03-02T00:28:14;8.80;99.90
2112;DHT22;1062;52.538;13.400;2024-03-02T00:30:57;8.80;99.90
2112;DHT22;1062;52.538;13.400;2024-03-02T00:33:25;8.70;99.90
2112;DHT22;1062;52.538;13.400;2024-03-02T00:35:51;8.70;99.90
2112;DHT22;1062;52.538;13.400;2024-03-02T00:38:17;8.70;99.90
2112;DHT22;1062;52.538;13.400;2024-03-02T00:40:44;8.70;99.90
2112;DHT22;1062;52.538;13.400;2024-03-02T00:43:50;8.80;99.90
2112;DHT22;1062;52.538;13.400;2024-03-02T00:46:19;8.80;99.90
2112;DHT22;1062;52.538;13.400;2024-03-02T00:49:18;8.80;99.90
2112;DHT22;1062;52.538;13.400;2024-03-02T00:51:47;8.80;99.90
2112;DHT22;1062;52.538;13.400;2024-03-02T00:54:14;8.80;99.90
2112;DHT22;1062;52.538;13.400;2024-03-02T00:56:41;8.80;99.90
2112;DHT22;1062;52.538;13.400;2024-03-02T00:59:07;8.90;99.90
2112;DHT22;1062;52.538;13.400;2024-03-02T01:01:34;8.90;99.90
2112;DHT22;1062;52.538;13.400;2024-03-02T01:04:00;8.90;99.90
2112;DHT22;1062;52.538;13.400;2024-03-02T01:06:25;9.00;99.90
2112;DHT22;1062;52.538;13.400;2024-03-02T01:08:51;9.00;99.90
2112;DHT22;1062;52.538;13.400;2024-03-02T01:11:17;9.00;99.90
2112;DHT22;1062;52.538;13.400;2024-03-02T01:13:44;9.00;99.90
2112;DHT22;1062;52.538;13.400;2024-03-02T01:16:10;9.10;99.90
2112;DHT22;1062;52.538;13.400;2024-03-02T01:18:35;9.10;99.90
2112;DHT22;1062;52.538;13.400;2024-03-02T01:21:01;9.00;99.90
2112;DHT22;1062;52.538;13.400;2024-03-02T01:23:27;9.00;99.90
2112;DHT22;1062;52.538;13.400;2024-03-02T01:25:52;9.00;99.90
2112;DHT22;1062;52.538;13.400;2024-03-02T01:28:18;9.10;99.90
2112;DHT22;1062;52.538;13.400;2024-03-02T01:30:44;9.10;99.90
2112;DHT22;1062;52.538;13.400;2024-03-02T01:33:10;9.10;99.90
2112;DHT22;1062;52.538;13.400;2024-03-02T01:35:36;9.00;99.90
2112;DHT22;1062;52.538;13.400;2024-03-02T01:38:02;9.00;99.90
2112;DHT22;1062;52.538;13.400;2024-03-02T01:40:28;9.10;99.90
2112;DHT22;1062;52.538;13.400;2024-03-02T01:42:54;9.00;99.90
2112;DHT22;1062;52.538;13.400;2024-03-02T01:45:21;9.10;99.90
2112;DHT22;1062;52.538;13.400;2024-03-02T01:47:47;9.20;99.90
2112;DHT22;1062;52.538;13.400;2024-03-02T01:50:13;9.20;99.90
2112;DHT22;1062;52.538;13.400;2024-03-02T01:52:40;9.20;99.90
2112;DHT22;1062;52.538;13.400;2024-03-02T01:55:06;9.20;99.90
2112;DHT22;1062;52.538;13.400;2024-03-02T01:57:33;9.20;99.90
2112;DHT22;1062;52.538;13.400;2024-03-02T02:00:00;9.10;99.90
2112;DHT22;1062;52.538;13.400;2024-03-02T02:02:25;9.10;99.90
2112;DHT22;1062;52.538;13.400;2024-03-02T02:04:51;9.10;99.90
2112;DHT22;1062;52.538;13.400;2024-03-02T02:07:17;9.10;99.90
2112;DHT22;1062;52.538;13.400;2024-03-02T02:09:42;9.20;99.90
2112;DHT22;1062;52.538;13.400;2024-03-02T02:12:09;9.10;99.90
2112;DHT22;1062;52.538;13.400;2024-03-02T02:14:35;9.10;99.90
2112;DHT22;1062;52.538;13.400;2024-03-02T02:17:01;9.20;99.90
2112;DHT22;1062;52.538;13.400;2024-03-02T02:19:27;9.20;99.90
2112;DHT22;1062;52.538;13.400;2024-03-02T02:21:52;9.20;99.90
2112;DHT22;1062;52.538;13.400;2024-03-02T02:24:18;9.20;99.90
2112;DHT22;1062;52.538;13.400;2024-03-02T02:26:43;9.20;99.90
2112;DHT22;1062;52.538;13.400;2024-03-02T02:29:09;9.10;99.90
2112;DHT22;1062;52.538;13.400;2024-03-02T02:31:39;9.10;99.90
2112;DHT22;1062;52.538;13.400;2024-03-02T02:34:05;9.20;99.90
2112;DHT22;1062;52.538;13.400;2024-03-02T02:36:34;9.10;99.90
2112;DHT22;1062;52.538;13.400;2024-03-02T02:39:02;9.10;99.90
2112;DHT22;1062;52.538;13.400;2024-03-02T02:41:32;9.10;99.90
2112;DHT22;1062;52.538;13.400;2024-03-02T02:43:59;9.10;99.90
2112;DHT22;1062;52.538;13.400;2024-03-02T02:46:25;9.10;99.90
2112;DHT22;1062;52.538;13.400;2024-03-02T02:48:50;9.20;99.90
2112;DHT22;1062;52.538;13.400;2024-03-02T02:51:18;9.10;99.90
2112;DHT22;1062;52.538;13.400;2024-03-02T02:53:44;9.10;99.90
2112;DHT22;1062;52.538;13.400;2024-03-02T02:56:10;9.10;99.90
2112;DHT22;1062;52.538;13.400;2024-03-02T02:58:36;9.20;99.90
2112;DHT22;1062;52.538;13.400;2024-03-02T03:01:02;9.20;99.90
2112;DHT22;1062;52.538;13.400;2024-03-02T03:03:27;9.10;99.90
2112;DHT22;1062;52.538;13.400;2024-03-02T03:05:53;9.20;99.90
2112;DHT22;1062;52.538;13.400;2024-03-02T03:08:18;9.20;99.90
2112;DHT22;1062;52.538;13.400;2024-03-02T03:10:44;9.20;99.90
2112;DHT22;1062;52.538;13.400;2024-03-02T03:13:10;9.20;99.90
2112;DHT22;1062;52.538;13.400;2024-03-02T03:15:36;9.20;99.90
2112;DHT22;1062;52.538;13.400;2024-03-02T03:18:05;9.30;99.90
2112;DHT22;1062;52.538;13.400;2024-03-02T03:20:31;9.20;99.90
2112;DHT22;1062;52.538;13.400;2024-03-02T03:22:57;9.20;99.90
2112;DHT22;1062;52.538;13.400;2024-03-02T03:25:23;9.20;99.90
2112;DHT22;1062;52.538;13.400;2024-03-02T03:27:48;9.20;99.90
2112;DHT22;1062;52.538;13.400;2024-03-02T03:30:14;9.20;99.90
2112;DHT22;1062;52.538;13.400;2024-03-02T03:32:40;9.20;99.90
2112;DHT22;1062;52.538;13.400;2024-03-02T03:35:06;9.20;99.90
2112;DHT22;1062;52.538;13.400;2024-03-02T03:37:32;9.20;99.90
2112;DHT22;1062;52.538;13.400;2024-03-02T03:40:02;9.20;99.90
2112;DHT22;1062;52.538;13.400;2024-03-02T03:42:28;9.20;99.90
2112;DHT22;1062;52.538;13.400;2024-03-02T03:44:54;9.20;99.90
2112;DHT22;1062;52.538;13.400;2024-03-02T03:47:19;9.20;99.90
2112;DHT22;1062;52.538;13.400;2024-03-02T03:49:45;9.30;99.90
2112;DHT22;1062;52.538;13.400;2024-03-02T03:52:11;9.30;99.90
2112;DHT22;1062;52.538;13.400;2024-03-02T03:54:36;9.30;99.90
2112;DHT22;1062;52.538;13.400;2024-03-02T03:57:04;9.30;99.90
2112;DHT22;1062;52.538;13.400;2024-03-02T03:59:30;9.30;99.90
2112;DHT22;1062;52.538;13.400;2024-03-02T04:01:55;9.30;99.90
2112;DHT22;1062;52.538;13.400;2024-03-02T04:04:21;9.40;99.90
2112;DHT22;1062;52.538;13.400;2024-03-02T04:06:47;9.40;99.90
2112;DHT22;1062;52.538;13.400;2024-03-02T04:09:12;9.40;99.90
2112;DHT22;1062;52.538;13.400;2024-03-02T04:11:38;9.40;99.90
2112;DHT22;1062;52.538;13.400;2024-03-02T04:14:04;9.40;99.90
2112;DHT22;1062;52.538;13.400;2024-03-02T04:16:31;9.40;99.90
2112;DHT22;1062;52.538;13.400;2024-03-02T04:18:57;9.40;99.90
2112;DHT22;1062;52.538;13.400;2024-03-02T04:21:22;9.40;99.90
2112;DHT22;1062;52.538;13.400;2024-03-02T04:23:48;9.40;99.90
2112;DHT22;1062;52.538;13.400;2024-03-02T04:26:13;9.40;99.90
2112;DHT22;1062;52.538;13.400;2024-03-02T04:28:40;9.30;99.90
2112;DHT22;1062;52.538;13.400;2024-03-02T04:31:05;9.30;99.90
2112;DHT22;1062;52.538;13.400;2024-03-02T04:33:31;9.40;99.90
2112;DHT22;1062;52.538;13.400;2024-03-02T04:35:57;9.40;99.90
2112;DHT22;1062;52.538;13.400;2024-03-02T04:38:23;9.40;99.90
2112;DHT22;1062;52.538;13.400;2024-03-02T04:40:48;9.30;99.90
2112;DHT22;1062;52.538;13.400;2024-03-02T04:43:14;9.40;99.90
2112;DHT22;1062;52.538;13.400;2024-03-02T04:45:42;9.40;99.90
2112;DHT22;1062;52.538;13.400;2024-03-02T04:48:08;9.40;99.90
2112;DHT22;1062;52.538;13.400;2024-03-02T04:50:34;9.40;99.90
2112;DHT22;1062;52.538;13.400;2024-03-02T04:52:59;9.40;99.90
2112;DHT22;1062;52.538;13.400;2024-03-02T04:55:25;9.40;99.90
2112;DHT22;1062;52.538;13.400;2024-03-02T04:58:10;9.40;99.90
2112;DHT22;1062;52.538;13.400;2024-03-02T05:00:36;9.40;99.90
2112;DHT22;1062;52.538;13.400;2024-03-02T05:03:02;9.40;99.90
2112;DHT22;1062;52.538;13.400;2024-03-02T05:05:28;9.40;99.90
2112;DHT22;1062;52.538;13.400;2024-03-02T05:07:54;9.40;99.90
2112;DHT22;1062;52.538;13.400;2024-03-02T05:10:20;9.40;99.90
2112;DHT22;1062;52.538;13.400;2024-03-02T05:12:45;9.40;99.90
2112;DHT22;1062;52.538;13.400;2024-03-02T05:15:12;9.40;99.90
2112;DHT22;1062;52.538;13.400;2024-03-02T05:17:42;9.40;99.90
2112;DHT22;1062;52.538;13.400;2024-03-02T05:20:11;9.40;99.90
2112;DHT22;1062;52.538;13.400;2024-03-02T05:22:37;9.50;99.90
2112;DHT22;1062;52.538;13.400;2024-03-02T05:25:06;9.40;99.90
2112;DHT22;1062;52.538;13.400;2024-03-02T05:27:32;9.40;99.90
2112;DHT22;1062;52.538;13.400;2024-03-02T05:30:01;9.50;99.90
2112;DHT22;1062;52.538;13.400;2024-03-02T05:32:27;9.50;99.90
2112;DHT22;1062;52.538;13.400;2024-03-02T05:34:52;9.40;99.90
2112;DHT22;1062;52.538;13.400;2024-03-02T05:37:18;9.40;99.90
2112;DHT22;1062;52.538;13.400;2024-03-02T05:39:44;9.40;99.90
2112;DHT22;1062;52.538;13.400;2024-03-02T05:42:10;9.40;99.90
2112;DHT22;1062;52.538;13.400;2024-03-02T05:44:38;9.40;99.90
2112;DHT22;1062;52.538;13.400;2024-03-02T05:47:04;9.30;99.90
2112;DHT22;1062;52.538;13.400;2024-03-02T05:49:30;9.30;99.90
2112;DHT22;1062;52.538;13.400;2024-03-02T05:51:55;9.30;99.90
2112;DHT22;1062;52.538;13.400;2024-03-02T05:54:21;9.20;99.90
2112;DHT22;1062;52.538;13.400;2024-03-02T05:56:47;9.30;99.90
2112;DHT22;1062;52.538;13.400;2024-03-02T05:59:12;9.30;99.90
2112;DHT22;1062;52.538;13.400;2024-03-02T06:01:47;9.20;99.90
2112;DHT22;1062;52.538;13.400;2024-03-02T06:04:15;9.20;99.90
2112;DHT22;1062;52.538;13.400;2024-03-02T06:06:41;9.10;99.90
2112;DHT22;1062;52.538;13.400;2024-03-02T06:09:07;9.10;99.90
2112;DHT22;1062;52.538;13.400;2024-03-02T06:11:39;9.10;99.90
2112;DHT22;1062;52.538;13.400;2024-03-02T06:14:08;9.10;99.90
2112;DHT22;1062;52.538;13.400;2024-03-02T06:16:34;9.00;99.90
2112;DHT22;1062;52.538;13.400;2024-03-02T06:19:00;9.10;99.90
2112;DHT22;1062;52.538;13.400;2024-03-02T06:21:27;9.10;99.90
2112;DHT22;1062;52.538;13.400;2024-03-02T06:23:53;9.10;99.90
2112;DHT22;1062;52.538;13.400;2024-03-02T06:26:19;9.10;99.90
2112;DHT22;1062;52.538;13.400;2024-03-02T06:28:45;9.10;99.90
2112;DHT22;1062;52.538;13.400;2024-03-02T06:31:11;9.20;99.90
2112;DHT22;1062;52.538;13.400;2024-03-02T06:33:37;9.10;99.90
2112;DHT22;1062;52.538;13.400;2024-03-02T06:36:03;9.10;99.90
2112;DHT22;1062;52.538;13.400;2024-03-02T06:38:29;9.10;99.90
2112;DHT22;1062;52.538;13.400;2024-03-02T06:40:54;9.10;99.90
2112;DHT22;1062;52.538;13.400;2024-03-02T06:43:23;9.10;99.90
2112;DHT22;1062;52.538;13.400;2024-03-02T06:45:52;9.10;99.90
2112;DHT22;1062;52.538;13.400;2024-03-02T06:48:18;9.10;99.90
2112;DHT22;1062;52.538;13.400;2024-03-02T06:50:49;9.10;99.90
2112;DHT22;1062;52.538;13.400;2024-03-02T06:53:15;9.20;99.90
2112;DHT22;1062;52.538;13.400;2024-03-02T06:55:45;9.30;99.90
2112;DHT22;1062;52.538;13.400;2024-03-02T06:58:11;9.30;99.90
2112;DHT22;1062;52.538;13.400;2024-03-02T07:00:37;9.40;99.90
2112;DHT22;1062;52.538;13.400;2024-03-02T07:03:03;9.40;99.90
2112;DHT22;1062;52.538;13.400;2024-03-02T07:05:28;9.40;99.90
2112;DHT22;1062;52.538;13.400;2024-03-02T07:07:54;9.40;99.90
2112;DHT22;1062;52.538;13.400;2024-03-02T07:10:20;9.50;99.90
2112;DHT22;1062;52.538;13.400;2024-03-02T07:12:45;9.40;99.90
2112;DHT22;1062;52.538;13.400;2024-03-02T07:15:11;9.40;99.90
2112;DHT22;1062;52.538;13.400;2024-03-02T07:17:47;9.50;99.90
2112;DHT22;1062;52.538;13.400;2024-03-02T07:20:12;9.50;99.90
2112;DHT22;1062;52.538;13.400;2024-03-02T07:22:38;9.50;99.90
2112;DHT22;1062;52.538;13.400;2024-03-02T07:25:05;9.40;99.90
2112;DHT22;1062;52.538;13.400;2024-03-02T07:27:32;9.40;99.90
2112;DHT22;1062;52.538;13.400;2024-03-02T07:29:59;9.40;99.90
2112;DHT22;1062;52.538;13.400;2024-03-02T07:32:24;9.40;99.90
2112;DHT22;1062;52.538;13.400;2024-03-02T07:34:50;9.60;99.90
2112;DHT22;1062;52.538;13.400;2024-03-02T07:37:16;9.70;99.90
2112;DHT22;1062;52.538;13.400;2024-03-02T07:39:44;9.70;99.90
2112;DHT22;1062;52.538;13.400;2024-03-02T07:42:09;9.70;99.90
2112;DHT22;1062;52.538;13.400;2024-03-02T07:44:35;9.70;99.90
2112;DHT22;1062;52.538;13.400;2024-03-02T07:47:01;9.70;99.90
2112;DHT22;1062;52.538;13.400;2024-03-02T07:49:26;9.60;99.90
2112;DHT22;1062;52.538;13.400;2024-03-02T07:51:52;9.70;99.90
2112;DHT22;1062;52.538;13.400;2024-03-02T07:54:18;9.70;99.90
2112;DHT22;1062;52.538;13.400;2024-03-02T07:56:44;9.70;99.90
2112;DHT22;1062;52.538;13.400;2024-03-02T07:59:10;9.70;99.90
2112;DHT22;1062;52.538;13.400;2024-03-02T08:01:35;9.60;99.90
2112;DHT22;1062;52.538;13.400;2024-03-02T08:04:02;9.60;99.90
2112;DHT22;1062;52.538;13.400;2024-03-02T08:06:30;9.60;99.90
2112;DHT22;1062;52.538;13.400;2024-03-02T08:08:59;9.70;99.90
2112;DHT22;1062;52.538;13.400;2024-03-02T08:11:25;9.70;99.90
2112;DHT22;1062;52.538;13.400;2024-03-02T08:13:52;9.70;99.90
2112;DHT22;1062;52.538;13.400;2024-03-02T08:16:20;9.80;99.90
2112;DHT22;1062;52.538;13.400;2024-03-02T08:18:47;9.90;99.90
2112;DHT22;1062;52.538;13.400;2024-03-02T08:21:13;10.00;99.90
2112;DHT22;1062;52.538;13.400;2024-03-02T08:23:39;10.10;99.90
2112;DHT22;1062;52.538;13.400;2024-03-02T08:26:06;10.10;99.90
2112;DHT22;1062;52.538;13.400;2024-03-02T08:28:32;10.00;99.90
2112;DHT22;1062;52.538;13.400;2024-03-02T08:30:58;10.10;99.90
2112;DHT22;1062;52.538;13.400;2024-03-02T08:33:24;9.90;99.90
2112;DHT22;1062;52.538;13.400;2024-03-02T08:35:49;9.90;99.90
2112;DHT22;1062;52.538;13.400;2024-03-02T08:38:15;9.90;99.90
2112;DHT22;1062;52.538;13.400;2024-03-02T08:40:41;9.90;99.90
2112;DHT22;1062;52.538;13.400;2024-03-02T08:43:06;9.80;99.90
2112;DHT22;1062;52.538;13.400;2024-03-02T08:45:33;9.90;99.90
2112;DHT22;1062;52.538;13.400;2024-03-02T08:48:00;10.00;99.90
2112;DHT22;1062;52.538;13.400;2024-03-02T08:50:25;10.10;99.90
2112;DHT22;1062;52.538;13.400;2024-03-02T08:52:51;10.10;99.90
2112;DHT22;1062;52.538;13.400;2024-03-02T08:55:16;10.10;99.90
2112;DHT22;1062;52.538;13.400;2024-03-02T08:57:42;10.10;99.90
2112;DHT22;1062;52.538;13.400;2024-03-02T09:00:08;10.10;99.90
2112;DHT22;1062;52.538;13.400;2024-03-02T09:02:34;10.10;99.90
2112;DHT22;1062;52.538;13.400;2024-03-02T09:05:00;10.00;99.90
2112;DHT22;1062;52.538;13.400;2024-03-02T09:07:26;10.00;99.90
2112;DHT22;1062;52.538;13.400;2024-03-02T09:09:52;10.00;99.90
2112;DHT22;1062;52.538;13.400;2024-03-02T09:12:18;10.10;99.90
2112;DHT22;1062;52.538;13.400;2024-03-02T09:14:44;10.00;99.90
2112;DHT22;1062;52.538;13.400;2024-03-02T09:17:10;10.00;99.90
2112;DHT22;1062;52.538;13.400;2024-03-02T09:19:37;10.10;99.90
2112;DHT22;1062;52.538;13.400;2024-03-02T09:22:02;9.90;99.90
2112;DHT22;1062;52.538;13.400;2024-03-02T09:24:31;10.10;99.90
2112;DHT22;1062;52.538;13.400;2024-03-02T09:26:57;10.10;99.90
2112;DHT22;1062;52.538;13.400;2024-03-02T09:29:22;10.10;99.90
2112;DHT22;1062;52.538;13.400;2024-03-02T09:31:48;10.10;99.90
2112;DHT22;1062;52.538;13.400;2024-03-02T09:34:15;10.10;99.90
2112;DHT22;1062;52.538;13.400;2024-03-02T09:36:41;10.20;99.90
2112;DHT22;1062;52.538;13.400;2024-03-02T09:39:09;10.10;99.90
2112;DHT22;1062;52.538;13.400;2024-03-02T09:41:36;10.20;99.90
2112;DHT22;1062;52.538;13.400;2024-03-02T09:44:03;10.30;99.90
2112;DHT22;1062;52.538;13.400;2024-03-02T09:46:28;10.70;99.90
2112;DHT22;1062;52.538;13.400;2024-03-02T09:48:54;10.80;99.90
2112;DHT22;1062;52.538;13.400;2024-03-02T09:51:20;10.90;99.90
2112;DHT22;1062;52.538;13.400;2024-03-02T09:53:47;11.00;99.90
2112;DHT22;1062;52.538;13.400;2024-03-02T09:56:12;11.10;99.90
2112;DHT22;1062;52.538;13.400;2024-03-02T09:58:39;11.10;99.90
2112;DHT22;1062;52.538;13.400;2024-03-02T10:01:07;11.30;99.90
2112;DHT22;1062;52.538;13.400;2024-03-02T10:03:36;11.30;99.90
2112;DHT22;1062;52.538;13.400;2024-03-02T10:06:24;11.70;99.90
2112;DHT22;1062;52.538;13.400;2024-03-02T10:08:50;11.60;99.90
2112;DHT22;1062;52.538;13.400;2024-03-02T10:11:29;11.50;99.90
2112;DHT22;1062;52.538;13.400;2024-03-02T10:16:36;11.80;99.90
2112;DHT22;1062;52.538;13.400;2024-03-02T10:19:16;12.20;99.90
2112;DHT22;1062;52.538;13.400;2024-03-02T10:21:52;12.20;99.90
2112;DHT22;1062;52.538;13.400;2024-03-02T10:24:19;12.60;99.90
2112;DHT22;1062;52.538;13.400;2024-03-02T10:26:45;12.50;99.90
2112;DHT22;1062;52.538;13.400;2024-03-02T10:29:11;12.50;99.90
2112;DHT22;1062;52.538;13.400;2024-03-02T10:31:44;12.20;99.90
2112;DHT22;1062;52.538;13.400;2024-03-02T10:34:13;12.20;99.90
2112;DHT22;1062;52.538;13.400;2024-03-02T10:36:43;12.50;99.90
2112;DHT22;1062;52.538;13.400;2024-03-02T10:39:09;12.60;99.90
2112;DHT22;1062;52.538;13.400;2024-03-02T10:41:37;12.40;99.90
2112;DHT22;1062;52.538;13.400;2024-03-02T10:44:07;12.50;99.90
2112;DHT22;1062;52.538;13.400;2024-03-02T10:46:34;12.70;99.90
2112;DHT22;1062;52.538;13.400;2024-03-02T10:49:03;12.60;99.90
2112;DHT22;1062;52.538;13.400;2024-03-02T10:51:30;12.80;99.90
2112;DHT22;1062;52.538;13.400;2024-03-02T10:54:02;12.60;99.90
2112;DHT22;1062;52.538;13.400;2024-03-02T10:56:41;12.80;99.90
2112;DHT22;1062;52.538;13.400;2024-03-02T11:01:55;12.50;99.90
2112;DHT22;1062;52.538;13.400;2024-03-02T11:04:24;12.50;99.90
2112;DHT22;1062;52.538;13.400;2024-03-02T11:06:51;12.50;99.90
2112;DHT22;1062;52.538;13.400;2024-03-02T11:09:22;12.60;99.90
2112;DHT22;1062;52.538;13.400;2024-03-02T11:12:00;12.50;99.90
2112;DHT22;1062;52.538;13.400;2024-03-02T11:14:32;12.40;99.90
2112;DHT22;1062;52.538;13.400;2024-03-02T11:17:02;12.40;99.90
2112;DHT22;1062;52.538;13.400;2024-03-02T11:19:29;12.70;99.90
2112;DHT22;1062;52.538;13.400;2024-03-02T11:21:55;12.70;99.90
2112;DHT22;1062;52.538;13.400;2024-03-02T11:26:47;12.70;99.90
2112;DHT22;1062;52.538;13.400;2024-03-02T11:32:15;12.70;99.90
2112;DHT22;1062;52.538;13.400;2024-03-02T11:34:42;12.60;99.90
2112;DHT22;1062;52.538;13.400;2024-03-02T11:37:19;13.20;99.90
2112;DHT22;1062;52.538;13.400;2024-03-02T11:39:50;13.50;99.90
2112;DHT22;1062;52.538;13.400;2024-03-02T11:42:16;13.70;99.90
2112;DHT22;1062;52.538;13.400;2024-03-02T11:44:45;13.70;99.90
2112;DHT22;1062;52.538;13.400;2024-03-02T11:47:12;13.30;99.90
2112;DHT22;1062;52.538;13.400;2024-03-02T11:49:40;13.60;99.90
2112;DHT22;1062;52.538;13.400;2024-03-02T11:52:08;13.80;99.90
2112;DHT22;1062;52.538;13.400;2024-03-02T11:54:38;13.60;99.90
2112;DHT22;1062;52.538;13.400;2024-03-02T11:57:12;13.80;99.90
2112;DHT22;1062;52.538;13.400;2024-03-02T11:59:38;13.60;99.90
2112;DHT22;1062;52.538;13.400;2024-03-02T12:02:03;13.80;99.90
2112;DHT22;1062;52.538;13.400;2024-03-02T12:04:29;13.50;99.90
2112;DHT22;1062;52.538;13.400;2024-03-02T12:06:56;13.80;99.90
2112;DHT22;1062;52.538;13.400;2024-03-02T12:09:25;13.90;99.90
2112;DHT22;1062;52.538;13.400;2024-03-02T12:12:08;14.00;99.90
2112;DHT22;1062;52.538;13.400;2024-03-02T12:14:36;14.00;99.90
2112;DHT22;1062;52.538;13.400;2024-03-02T12:17:03;14.10;99.90
2112;DHT22;1062;52.538;13.400;2024-03-02T12:19:29;13.90;99.90
2112;DHT22;1062;52.538;13.400;2024-03-02T12:21:59;13.50;99.90
2112;DHT22;1062;52.538;13.400;2024-03-02T12:24:27;14.00;99.90
2112;DHT22;1062;52.538;13.400;2024-03-02T12:26:53;14.30;99.90
2112;DHT22;1062;52.538;13.400;2024-03-02T12:29:20;14.10;99.90
2112;DHT22;1062;52.538;13.400;2024-03-02T12:31:51;14.30;99.90
2112;DHT22;1062;52.538;13.400;2024-03-02T12:34:18;14.50;99.90
2112;DHT22;1062;52.538;13.400;2024-03-02T12:36:46;14.50;99.90
2112;DHT22;1062;52.538;13.400;2024-03-02T12:39:17;14.50;99.90
2112;DHT22;1062;52.538;13.400;2024-03-02T12:41:43;14.70;99.90
2112;DHT22;1062;52.538;13.400;2024-03-02T12:44:09;14.80;99.90
2112;DHT22;1062;52.538;13.400;2024-03-02T12:46:35;14.60;99.90
2112;DHT22;1062;52.538;13.400;2024-03-02T12:49:11;14.60;99.90
2112;DHT22;1062;52.538;13.400;2024-03-02T12:51:41;14.50;99.90
2112;DHT22;1062;52.538;13.400;2024-03-02T12:54:08;14.20;99.90
2112;DHT22;1062;52.538;13.400;2024-03-02T12:56:35;14.30;99.90
2112;DHT22;1062;52.538;13.400;2024-03-02T12:59:01;14.70;99.90
2112;DHT22;1062;52.538;13.400;2024-03-02T13:01:27;14.90;99.90
2112;DHT22;1062;52.538;13.400;2024-03-02T13:03:53;15.20;99.90
2112;DHT22;1062;52.538;13.400;2024-03-02T13:06:21;15.10;99.90
2112;DHT22;1062;52.538;13.400;2024-03-02T13:08:46;14.90;99.90
2112;DHT22;1062;52.538;13.400;2024-03-02T13:11:13;14.90;99.90
2112;DHT22;1062;52.538;13.400;2024-03-02T13:13:39;14.80;99.90
2112;DHT22;1062;52.538;13.400;2024-03-02T13:16:12;15.00;99.90
2112;DHT22;1062;52.538;13.400;2024-03-02T13:18:41;14.90;99.90
2112;DHT22;1062;52.538;13.400;2024-03-02T13:21:07;15.10;99.90
2112;DHT22;1062;52.538;13.400;2024-03-02T13:23:33;15.30;99.90
2112;DHT22;1062;52.538;13.400;2024-03-02T13:25:59;15.10;99.90
2112;DHT22;1062;52.538;13.400;2024-03-02T13:28:26;15.20;99.90
2112;DHT22;1062;52.538;13.400;2024-03-02T13:30:51;15.30;99.90
2112;DHT22;1062;52.538;13.400;2024-03-02T13:33:18;15.30;99.90
2112;DHT22;1062;52.538;13.400;2024-03-02T13:35:51;15.50;99.90
2112;DHT22;1062;52.538;13.400;2024-03-02T13:38:20;14.80;99.90
2112;DHT22;1062;52.538;13.400;2024-03-02T13:40:47;14.90;99.90
2112;DHT22;1062;52.538;13.400;2024-03-02T13:43:16;14.70;99.90
2112;DHT22;1062;52.538;13.400;2024-03-02T13:45:42;14.70;99.90
2112;DHT22;1062;52.538;13.400;2024-03-02T13:48:08;15.00;99.90
2112;DHT22;1062;52.538;13.400;2024-03-02T13:50:33;14.80;99.90
2112;DHT22;1062;52.538;13.400;2024-03-02T13:52:59;15.00;99.90
2112;DHT22;1062;52.538;13.400;2024-03-02T13:55:24;14.80;99.90
2112;DHT22;1062;52.538;13.400;2024-03-02T13:57:50;14.80;99.90
2112;DHT22;1062;52.538;13.400;2024-03-02T14:00:17;14.90;99.90
2112;DHT22;1062;52.538;13.400;2024-03-02T14:02:43;14.90;99.90
2112;DHT22;1062;52.538;13.400;2024-03-02T14:05:09;14.90;99.90
2112;DHT22;1062;52.538;13.400;2024-03-02T14:07:39;14.90;99.90
2112;DHT22;1062;52.538;13.400;2024-03-02T14:10:05;15.00;99.90
2112;DHT22;1062;52.538;13.400;2024-03-02T14:12:31;14.90;99.90
2112;DHT22;1062;52.538;13.400;2024-03-02T14:14:57;14.80;99.90
2112;DHT22;1062;52.538;13.400;2024-03-02T14:17:27;14.80;99.90
2112;DHT22;1062;52.538;13.400;2024-03-02T14:19:53;14.60;99.90
2112;DHT22;1062;52.538;13.400;2024-03-02T14:22:19;14.70;99.90
2112;DHT22;1062;52.538;13.400;2024-03-02T14:24:45;14.50;99.90
2112;DHT22;1062;52.538;13.400;2024-03-02T14:27:11;14.50;99.90
2112;DHT22;1062;52.538;13.400;2024-03-02T14:29:37;14.40;99.90
2112;DHT22;1062;52.538;13.400;2024-03-02T14:32:05;14.20;99.90
2112;DHT22;1062;52.538;13.400;2024-03-02T14:34:30;14.10;99.90
2112;DHT22;1062;52.538;13.400;2024-03-02T14:36:56;14.30;99.90
2112;DHT22;1062;52.538;13.400;2024-03-02T14:39:22;14.30;99.90
2112;DHT22;1062;52.538;13.400;2024-03-02T14:41:48;14.20;99.90
2112;DHT22;1062;52.538;13.400;2024-03-02T14:44:14;14.10;99.90
2112;DHT22;1062;52.538;13.400;2024-03-02T14:46:40;14.20;99.90
2112;DHT22;1062;52.538;13.400;2024-03-02T14:49:06;14.10;99.90
2112;DHT22;1062;52.538;13.400;2024-03-02T14:51:33;14.10;99.90
2112;DHT22;1062;52.538;13.400;2024-03-02T14:53:58;13.90;99.90
2112;DHT22;1062;52.538;13.400;2024-03-02T14:56:24;13.80;99.90
2112;DHT22;1062;52.538;13.400;2024-03-02T14:58:49;13.70;99.90
2112;DHT22;1062;52.538;13.400;2024-03-02T15:01:16;13.70;99.90
2112;DHT22;1062;52.538;13.400;2024-03-02T15:03:43;13.60;99.90
2112;DHT22;1062;52.538;13.400;2024-03-02T15:06:08;13.60;99.90
2112;DHT22;1062;52.538;13.400;2024-03-02T15:08:35;13.60;99.90
2112;DHT22;1062;52.538;13.400;2024-03-02T15:11:00;13.60;99.90
2112;DHT22;1062;52.538;13.400;2024-03-02T15:13:26;13.60;99.90
2112;DHT22;1062;52.538;13.400;2024-03-02T15:15:52;13.60;99.90
2112;DHT22;1062;52.538;13.400;2024-03-02T15:18:18;13.70;99.90
2112;DHT22;1062;52.538;13.400;2024-03-02T15:20:44;13.60;99.90
2112;DHT22;1062;52.538;13.400;2024-03-02T15:23:10;13.60;99.90
2112;DHT22;1062;52.538;13.400;2024-03-02T15:25:36;13.60;99.90
2112;DHT22;1062;52.538;13.400;2024-03-02T15:28:01;13.60;99.90
2112;DHT22;1062;52.538;13.400;2024-03-02T15:30:27;13.50;99.90
2112;DHT22;1062;52.538;13.400;2024-03-02T15:32:53;13.50;99.90
2112;DHT22;1062;52.538;13.400;2024-03-02T15:35:18;13.50;99.90
2112;DHT22;1062;52.538;13.400;2024-03-02T15:37:44;13.60;99.90
2112;DHT22;1062;52.538;13.400;2024-03-02T15:40:09;13.50;99.90
2112;DHT22;1062;52.538;13.400;2024-03-02T15:42:36;13.50;99.90
2112;DHT22;1062;52.538;13.400;2024-03-02T15:45:02;13.50;99.90
2112;DHT22;1062;52.538;13.400;2024-03-02T15:47:28;13.50;99.90
2112;DHT22;1062;52.538;13.400;2024-03-02T15:49:54;13.50;99.90
2112;DHT22;1062;52.538;13.400;2024-03-02T15:52:20;13.60;99.90
2112;DHT22;1062;52.538;13.400;2024-03-02T15:54:47;13.50;99.90
2112;DHT22;1062;52.538;13.400;2024-03-02T15:57:13;13.40;99.90
2112;DHT22;1062;52.538;13.400;2024-03-02T15:59:39;13.30;99.90
2112;DHT22;1062;52.538;13.400;2024-03-02T16:02:05;13.20;99.90
2112;DHT22;1062;52.538;13.400;2024-03-02T16:04:30;13.10;99.90